Lynchburg, VA

08:48 EDT le 24 juillet 2016 (GMT -0400)
Concord Turnpike | | Change Station

Alt. 543 ft 37.40 °N, 79.11 °W | Updated 2 minutes ago

Clear
Ciel dégagé
82.7 ° F
Paraît 87 ° F
N
0.2
Vent Variable Vent de Sud
Gusts 2.8 mph

Aujourd'hui
Haut(e) -- | Bas -- ° F
--% Risque de précip.
Hier
Haut(e) -- | Bas -- ° F
Precip. -- pouce
Pression 30.01 pouce
Visibilité 10.0 Miles terrestres
Nuages Ciel dégagé
indice de chaleur 87 ° F
Point de rosée 71 ° F
Humidité 67%
Précipitations 0.00 pouce
Profondeur de la couche neigeuse Non disponible.
6:14 AM 8:31 PM
Lune gibbeuse décroissante, 76% visible
METAR KLYH 241154Z 00000KT 10SM CLR 24/22 A3005 RMK AO2 SLP163 T02440222 10244 20206 51011
Pression 30.01 pouce
Visibilité 10.0 Miles terrestres
Nuages Ciel dégagé
indice de chaleur 87 ° F
Point de rosée 71 ° F
Humidité 67%
Précipitations 0.00 pouce
Profondeur de la couche neigeuse Non disponible.
6:14 AM 8:31 PM
Lune gibbeuse décroissante, 76% visible
METAR KLYH 241154Z 00000KT 10SM CLR 24/22 A3005 RMK AO2 SLP163 T02440222 10244 20206 51011

10-Day Weather Forecast

Almanac

Astronomie

Jul. 24, 2016 Lever Coucher
Temps réel
Crépuscule civil
Crépuscule nautique
Crépuscule astronomique
Lune
Durée de lumière visible
Longueur du jour
Tomorrow will be .
, % of the Moon is Illuminated

Extrêmes aujourd'hui

State Highs State Lows

Community

WunderPhotos

Upload Photos

1,927,054 Photos téléchargées !

WunderBlog® & News

Nearby

Qualité de l'air

  Qualité de l'air Indice de la qualité de l'air Polluant
Not available.

Épaisseur de neige

Station Depth Altitude

Activité sismique

Ville Distance Mag. Time & Date
Minimum magnitude displayed is 2.5.

Températures des eaux côtières

Lieu Température

Stations

Stations météo à proximité

Emplacement de la station Température Refroidissement éolien Point de rosée Humidité Vent Precip. Alt. Mise à jour Type
                   

Watches & Warnings

There are currently no watches in effect.